sensor_id;sensor_type;location;lat;lon;timestamp;P1;durP1;ratioP1;P2;durP2;ratioP2
52948;SDS011;38812;50.942;3.644;2023-02-04T00:01:19;15.48;;;6.78;;
52948;SDS011;38812;50.942;3.644;2023-02-04T00:03:44;17.85;;;7.95;;
52948;SDS011;38812;50.942;3.644;2023-02-04T00:06:10;16.30;;;6.88;;
52948;SDS011;38812;50.942;3.644;2023-02-04T00:08:35;23.77;;;7.50;;
52948;SDS011;38812;50.942;3.644;2023-02-04T00:11:01;14.90;;;6.18;;
52948;SDS011;38812;50.942;3.644;2023-02-04T00:13:27;22.50;;;9.57;;
52948;SDS011;38812;50.942;3.644;2023-02-04T00:15:53;17.10;;;7.05;;
52948;SDS011;38812;50.942;3.644;2023-02-04T00:18:18;20.27;;;7.70;;
52948;SDS011;38812;50.942;3.644;2023-02-04T00:20:43;16.25;;;6.72;;
52948;SDS011;38812;50.942;3.644;2023-02-04T00:23:09;13.57;;;6.65;;
52948;SDS011;38812;50.942;3.644;2023-02-04T00:25:34;11.55;;;6.00;;
52948;SDS011;38812;50.942;3.644;2023-02-04T00:27:59;13.88;;;6.35;;
52948;SDS011;38812;50.942;3.644;2023-02-04T00:30:25;17.27;;;7.15;;
52948;SDS011;38812;50.942;3.644;2023-02-04T00:32:50;19.23;;;7.32;;
52948;SDS011;38812;50.942;3.644;2023-02-04T00:35:18;13.95;;;8.27;;
52948;SDS011;38812;50.942;3.644;2023-02-04T00:37:44;11.52;;;6.30;;
52948;SDS011;38812;50.942;3.644;2023-02-04T00:40:10;13.95;;;6.75;;
52948;SDS011;38812;50.942;3.644;2023-02-04T00:42:35;18.60;;;6.25;;
52948;SDS011;38812;50.942;3.644;2023-02-04T00:45:01;21.42;;;7.05;;
52948;SDS011;38812;50.942;3.644;2023-02-04T00:47:26;14.13;;;6.03;;
52948;SDS011;38812;50.942;3.644;2023-02-04T00:49:52;11.93;;;6.53;;
52948;SDS011;38812;50.942;3.644;2023-02-04T00:52:17;14.30;;;6.60;;
52948;SDS011;38812;50.942;3.644;2023-02-04T00:54:42;17.52;;;6.85;;
52948;SDS011;38812;50.942;3.644;2023-02-04T00:57:08;11.90;;;5.95;;
52948;SDS011;38812;50.942;3.644;2023-02-04T00:59:33;11.07;;;5.80;;
52948;SDS011;38812;50.942;3.644;2023-02-04T01:01:58;11.45;;;4.93;;
52948;SDS011;38812;50.942;3.644;2023-02-04T01:04:24;10.23;;;4.82;;
52948;SDS011;38812;50.942;3.644;2023-02-04T01:06:50;8.48;;;4.90;;
52948;SDS011;38812;50.942;3.644;2023-02-04T01:09:15;15.50;;;5.15;;
52948;SDS011;38812;50.942;3.644;2023-02-04T01:11:41;15.77;;;4.53;;
52948;SDS011;38812;50.942;3.644;2023-02-04T01:14:06;13.30;;;5.07;;
52948;SDS011;38812;50.942;3.644;2023-02-04T01:16:31;10.73;;;4.10;;
52948;SDS011;38812;50.942;3.644;2023-02-04T01:18:57;14.50;;;4.55;;
52948;SDS011;38812;50.942;3.644;2023-02-04T01:21:24;10.50;;;4.20;;
52948;SDS011;38812;50.942;3.644;2023-02-04T01:23:50;15.02;;;5.00;;
52948;SDS011;38812;50.942;3.644;2023-02-04T01:26:17;14.13;;;5.15;;
52948;SDS011;38812;50.942;3.644;2023-02-04T01:28:43;12.32;;;4.30;;
52948;SDS011;38812;50.942;3.644;2023-02-04T01:31:08;13.63;;;5.00;;
52948;SDS011;38812;50.942;3.644;2023-02-04T01:33:34;14.18;;;4.85;;
52948;SDS011;38812;50.942;3.644;2023-02-04T01:35:59;13.73;;;4.68;;
52948;SDS011;38812;50.942;3.644;2023-02-04T01:38:25;7.50;;;4.03;;
52948;SDS011;38812;50.942;3.644;2023-02-04T01:40:50;13.57;;;4.55;;
52948;SDS011;38812;50.942;3.644;2023-02-04T01:43:16;12.52;;;4.93;;
52948;SDS011;38812;50.942;3.644;2023-02-04T01:45:43;8.88;;;4.30;;
52948;SDS011;38812;50.942;3.644;2023-02-04T01:48:09;13.85;;;4.90;;
52948;SDS011;38812;50.942;3.644;2023-02-04T01:50:36;10.23;;;4.18;;
52948;SDS011;38812;50.942;3.644;2023-02-04T01:53:02;15.10;;;5.53;;
52948;SDS011;38812;50.942;3.644;2023-02-04T01:55:28;12.88;;;5.53;;
52948;SDS011;38812;50.942;3.644;2023-02-04T01:57:55;11.40;;;5.00;;
52948;SDS011;38812;50.942;3.644;2023-02-04T02:00:31;12.80;;;5.00;;
52948;SDS011;38812;50.942;3.644;2023-02-04T02:02:57;13.98;;;5.50;;
52948;SDS011;38812;50.942;3.644;2023-02-04T02:05:38;16.60;;;5.25;;
52948;SDS011;38812;50.942;3.644;2023-02-04T02:08:05;13.75;;;4.93;;
52948;SDS011;38812;50.942;3.644;2023-02-04T02:10:31;12.02;;;5.10;;
52948;SDS011;38812;50.942;3.644;2023-02-04T02:12:58;11.55;;;5.03;;
52948;SDS011;38812;50.942;3.644;2023-02-04T02:15:24;12.77;;;4.97;;
52948;SDS011;38812;50.942;3.644;2023-02-04T02:17:50;16.75;;;4.80;;
52948;SDS011;38812;50.942;3.644;2023-02-04T02:20:18;13.52;;;5.20;;
52948;SDS011;38812;50.942;3.644;2023-02-04T02:25:25;27.27;;;4.65;;
52948;SDS011;38812;50.942;3.644;2023-02-04T02:27:50;10.38;;;4.38;;
52948;SDS011;38812;50.942;3.644;2023-02-04T02:30:16;14.00;;;4.13;;
52948;SDS011;38812;50.942;3.644;2023-02-04T02:32:44;12.30;;;4.68;;
52948;SDS011;38812;50.942;3.644;2023-02-04T02:35:10;8.68;;;4.63;;
52948;SDS011;38812;50.942;3.644;2023-02-04T02:37:36;10.32;;;4.07;;
52948;SDS011;38812;50.942;3.644;2023-02-04T02:40:01;10.48;;;4.97;;
52948;SDS011;38812;50.942;3.644;2023-02-04T02:42:27;6.95;;;4.45;;
52948;SDS011;38812;50.942;3.644;2023-02-04T02:44:54;12.23;;;4.10;;
52948;SDS011;38812;50.942;3.644;2023-02-04T02:47:20;17.15;;;5.20;;
52948;SDS011;38812;50.942;3.644;2023-02-04T02:49:48;12.35;;;4.30;;
52948;SDS011;38812;50.942;3.644;2023-02-04T02:52:15;14.27;;;5.80;;
52948;SDS011;38812;50.942;3.644;2023-02-04T02:54:41;11.85;;;5.20;;
52948;SDS011;38812;50.942;3.644;2023-02-04T02:57:18;16.83;;;6.03;;
52948;SDS011;38812;50.942;3.644;2023-02-04T02:59:45;9.55;;;4.93;;
52948;SDS011;38812;50.942;3.644;2023-02-04T03:02:12;10.75;;;5.13;;
52948;SDS011;38812;50.942;3.644;2023-02-04T03:04:43;15.45;;;5.03;;
52948;SDS011;38812;50.942;3.644;2023-02-04T03:07:11;14.73;;;5.88;;
52948;SDS011;38812;50.942;3.644;2023-02-04T03:09:38;15.02;;;5.85;;
52948;SDS011;38812;50.942;3.644;2023-02-04T03:12:04;18.13;;;6.18;;
52948;SDS011;38812;50.942;3.644;2023-02-04T03:14:30;14.65;;;6.15;;
52948;SDS011;38812;50.942;3.644;2023-02-04T03:16:56;14.88;;;6.53;;
52948;SDS011;38812;50.942;3.644;2023-02-04T03:19:25;14.98;;;6.80;;
52948;SDS011;38812;50.942;3.644;2023-02-04T03:21:51;13.00;;;6.63;;
52948;SDS011;38812;50.942;3.644;2023-02-04T03:24:18;17.63;;;6.80;;
52948;SDS011;38812;50.942;3.644;2023-02-04T03:26:43;12.88;;;7.55;;
52948;SDS011;38812;50.942;3.644;2023-02-04T03:29:09;16.10;;;7.78;;
52948;SDS011;38812;50.942;3.644;2023-02-04T03:31:35;17.92;;;7.35;;
52948;SDS011;38812;50.942;3.644;2023-02-04T03:34:01;16.02;;;7.63;;
52948;SDS011;38812;50.942;3.644;2023-02-04T03:36:27;18.10;;;7.50;;
52948;SDS011;38812;50.942;3.644;2023-02-04T03:38:52;15.20;;;8.30;;
52948;SDS011;38812;50.942;3.644;2023-02-04T03:41:18;12.60;;;7.72;;
52948;SDS011;38812;50.942;3.644;2023-02-04T03:43:44;14.48;;;8.43;;
52948;SDS011;38812;50.942;3.644;2023-02-04T03:46:09;15.73;;;8.05;;
52948;SDS011;38812;50.942;3.644;2023-02-04T03:48:34;17.92;;;8.75;;
52948;SDS011;38812;50.942;3.644;2023-02-04T03:51:00;18.60;;;8.98;;
52948;SDS011;38812;50.942;3.644;2023-02-04T03:53:25;14.80;;;9.07;;
52948;SDS011;38812;50.942;3.644;2023-02-04T03:55:51;17.67;;;9.68;;
52948;SDS011;38812;50.942;3.644;2023-02-04T03:58:16;18.25;;;10.07;;
52948;SDS011;38812;50.942;3.644;2023-02-04T04:00:41;12.52;;;10.15;;
52948;SDS011;38812;50.942;3.644;2023-02-04T04:03:07;21.13;;;11.38;;
52948;SDS011;38812;50.942;3.644;2023-02-04T04:05:33;12.00;;;9.82;;
52948;SDS011;38812;50.942;3.644;2023-02-04T04:07:58;17.00;;;10.88;;
52948;SDS011;38812;50.942;3.644;2023-02-04T04:10:24;16.42;;;10.25;;
52948;SDS011;38812;50.942;3.644;2023-02-04T04:12:49;20.52;;;10.95;;
52948;SDS011;38812;50.942;3.644;2023-02-04T04:15:15;16.98;;;11.57;;
52948;SDS011;38812;50.942;3.644;2023-02-04T04:17:40;16.55;;;10.95;;
52948;SDS011;38812;50.942;3.644;2023-02-04T04:20:06;16.85;;;11.45;;
52948;SDS011;38812;50.942;3.644;2023-02-04T04:22:32;18.13;;;11.85;;
52948;SDS011;38812;50.942;3.644;2023-02-04T04:24:57;17.88;;;12.07;;
52948;SDS011;38812;50.942;3.644;2023-02-04T04:27:23;16.52;;;12.02;;
52948;SDS011;38812;50.942;3.644;2023-02-04T04:29:49;18.23;;;12.45;;
52948;SDS011;38812;50.942;3.644;2023-02-04T04:32:15;21.25;;;13.23;;
52948;SDS011;38812;50.942;3.644;2023-02-04T04:34:41;23.45;;;13.00;;
52948;SDS011;38812;50.942;3.644;2023-02-04T04:37:06;23.10;;;13.27;;
52948;SDS011;38812;50.942;3.644;2023-02-04T04:39:31;22.77;;;13.77;;
52948;SDS011;38812;50.942;3.644;2023-02-04T04:41:57;29.25;;;13.27;;
52948;SDS011;38812;50.942;3.644;2023-02-04T04:44:22;20.90;;;12.57;;
52948;SDS011;38812;50.942;3.644;2023-02-04T04:46:48;20.92;;;13.32;;
52948;SDS011;38812;50.942;3.644;2023-02-04T04:49:13;19.90;;;14.23;;
52948;SDS011;38812;50.942;3.644;2023-02-04T04:51:40;23.35;;;13.85;;
52948;SDS011;38812;50.942;3.644;2023-02-04T04:54:05;24.95;;;13.98;;
52948;SDS011;38812;50.942;3.644;2023-02-04T04:56:31;21.15;;;14.27;;
52948;SDS011;38812;50.942;3.644;2023-02-04T04:58:57;23.15;;;13.43;;
52948;SDS011;38812;50.942;3.644;2023-02-04T05:01:22;28.00;;;15.32;;
52948;SDS011;38812;50.942;3.644;2023-02-04T05:03:48;26.33;;;13.63;;
52948;SDS011;38812;50.942;3.644;2023-02-04T05:06:13;22.30;;;13.77;;
52948;SDS011;38812;50.942;3.644;2023-02-04T05:08:39;26.05;;;14.70;;
52948;SDS011;38812;50.942;3.644;2023-02-04T05:11:04;21.13;;;14.20;;
52948;SDS011;38812;50.942;3.644;2023-02-04T05:13:29;22.83;;;14.25;;
52948;SDS011;38812;50.942;3.644;2023-02-04T05:15:55;26.75;;;15.30;;
52948;SDS011;38812;50.942;3.644;2023-02-04T05:18:20;27.45;;;14.77;;
52948;SDS011;38812;50.942;3.644;2023-02-04T05:20:46;22.38;;;14.60;;
52948;SDS011;38812;50.942;3.644;2023-02-04T05:23:11;33.60;;;14.10;;
52948;SDS011;38812;50.942;3.644;2023-02-04T05:25:37;43.75;;;22.98;;
52948;SDS011;38812;50.942;3.644;2023-02-04T05:28:02;29.77;;;15.23;;
52948;SDS011;38812;50.942;3.644;2023-02-04T05:30:28;27.50;;;14.55;;
52948;SDS011;38812;50.942;3.644;2023-02-04T05:32:53;23.52;;;14.25;;
52948;SDS011;38812;50.942;3.644;2023-02-04T05:35:19;26.35;;;13.75;;
52948;SDS011;38812;50.942;3.644;2023-02-04T05:37:44;25.90;;;13.45;;
52948;SDS011;38812;50.942;3.644;2023-02-04T05:40:10;33.28;;;13.73;;
52948;SDS011;38812;50.942;3.644;2023-02-04T05:42:37;21.58;;;12.23;;
52948;SDS011;38812;50.942;3.644;2023-02-04T05:45:02;35.83;;;16.40;;
52948;SDS011;38812;50.942;3.644;2023-02-04T05:47:28;27.80;;;13.68;;
52948;SDS011;38812;50.942;3.644;2023-02-04T05:49:54;34.05;;;13.65;;
52948;SDS011;38812;50.942;3.644;2023-02-04T05:52:19;28.08;;;14.73;;
52948;SDS011;38812;50.942;3.644;2023-02-04T05:54:44;30.35;;;13.77;;
52948;SDS011;38812;50.942;3.644;2023-02-04T05:57:10;30.98;;;12.57;;
52948;SDS011;38812;50.942;3.644;2023-02-04T05:59:35;26.13;;;13.80;;
52948;SDS011;38812;50.942;3.644;2023-02-04T06:02:01;30.42;;;12.85;;
52948;SDS011;38812;50.942;3.644;2023-02-04T06:04:26;23.48;;;12.30;;
52948;SDS011;38812;50.942;3.644;2023-02-04T06:06:51;26.42;;;12.15;;
52948;SDS011;38812;50.942;3.644;2023-02-04T06:09:17;29.50;;;11.75;;
52948;SDS011;38812;50.942;3.644;2023-02-04T06:11:42;25.55;;;12.52;;
52948;SDS011;38812;50.942;3.644;2023-02-04T06:14:07;25.98;;;11.38;;
52948;SDS011;38812;50.942;3.644;2023-02-04T06:16:34;35.70;;;12.10;;
52948;SDS011;38812;50.942;3.644;2023-02-04T06:19:00;20.02;;;11.02;;
52948;SDS011;38812;50.942;3.644;2023-02-04T06:21:25;30.45;;;12.43;;
52948;SDS011;38812;50.942;3.644;2023-02-04T06:23:51;20.17;;;11.27;;
52948;SDS011;38812;50.942;3.644;2023-02-04T06:26:17;30.70;;;10.65;;
52948;SDS011;38812;50.942;3.644;2023-02-04T06:28:42;25.08;;;9.98;;
52948;SDS011;38812;50.942;3.644;2023-02-04T06:31:07;26.50;;;10.50;;
52948;SDS011;38812;50.942;3.644;2023-02-04T06:33:34;23.42;;;9.48;;
52948;SDS011;38812;50.942;3.644;2023-02-04T06:36:01;22.33;;;10.55;;
52948;SDS011;38812;50.942;3.644;2023-02-04T06:38:30;24.75;;;10.20;;
52948;SDS011;38812;50.942;3.644;2023-02-04T06:40:55;23.55;;;10.32;;
52948;SDS011;38812;50.942;3.644;2023-02-04T06:43:21;19.63;;;9.50;;
52948;SDS011;38812;50.942;3.644;2023-02-04T06:45:47;27.90;;;10.00;;
52948;SDS011;38812;50.942;3.644;2023-02-04T06:48:15;20.10;;;10.07;;
52948;SDS011;38812;50.942;3.644;2023-02-04T06:50:40;24.55;;;10.43;;
52948;SDS011;38812;50.942;3.644;2023-02-04T06:53:05;25.15;;;10.90;;
52948;SDS011;38812;50.942;3.644;2023-02-04T06:55:31;20.50;;;10.75;;
52948;SDS011;38812;50.942;3.644;2023-02-04T06:57:56;22.98;;;11.02;;
52948;SDS011;38812;50.942;3.644;2023-02-04T07:00:22;24.65;;;10.55;;
52948;SDS011;38812;50.942;3.644;2023-02-04T07:02:47;20.58;;;10.38;;
52948;SDS011;38812;50.942;3.644;2023-02-04T07:05:12;22.25;;;11.77;;
52948;SDS011;38812;50.942;3.644;2023-02-04T07:07:38;28.27;;;11.32;;
52948;SDS011;38812;50.942;3.644;2023-02-04T07:10:03;29.70;;;13.30;;
52948;SDS011;38812;50.942;3.644;2023-02-04T07:12:29;23.42;;;12.38;;
52948;SDS011;38812;50.942;3.644;2023-02-04T07:14:54;27.30;;;11.77;;
52948;SDS011;38812;50.942;3.644;2023-02-04T07:17:20;26.00;;;12.23;;
52948;SDS011;38812;50.942;3.644;2023-02-04T07:19:45;30.20;;;13.13;;
52948;SDS011;38812;50.942;3.644;2023-02-04T07:22:10;29.15;;;12.93;;
52948;SDS011;38812;50.942;3.644;2023-02-04T07:24:36;35.97;;;13.93;;
52948;SDS011;38812;50.942;3.644;2023-02-04T07:27:01;27.23;;;15.45;;
52948;SDS011;38812;50.942;3.644;2023-02-04T07:29:27;28.13;;;15.52;;
52948;SDS011;38812;50.942;3.644;2023-02-04T07:31:52;35.10;;;14.45;;
52948;SDS011;38812;50.942;3.644;2023-02-04T07:34:18;33.50;;;13.57;;
52948;SDS011;38812;50.942;3.644;2023-02-04T07:36:44;40.67;;;14.70;;
52948;SDS011;38812;50.942;3.644;2023-02-04T07:39:09;27.33;;;13.95;;
52948;SDS011;38812;50.942;3.644;2023-02-04T07:41:35;33.80;;;13.45;;
52948;SDS011;38812;50.942;3.644;2023-02-04T07:44:00;25.67;;;12.30;;
52948;SDS011;38812;50.942;3.644;2023-02-04T07:46:26;32.20;;;11.80;;
52948;SDS011;38812;50.942;3.644;2023-02-04T07:48:51;29.63;;;11.60;;
52948;SDS011;38812;50.942;3.644;2023-02-04T07:51:17;26.42;;;11.48;;
52948;SDS011;38812;50.942;3.644;2023-02-04T07:53:42;26.65;;;11.55;;
52948;SDS011;38812;50.942;3.644;2023-02-04T07:56:08;28.77;;;11.23;;
52948;SDS011;38812;50.942;3.644;2023-02-04T07:58:33;29.10;;;13.43;;
52948;SDS011;38812;50.942;3.644;2023-02-04T08:00:59;28.58;;;11.60;;
52948;SDS011;38812;50.942;3.644;2023-02-04T08:03:25;26.60;;;12.50;;
52948;SDS011;38812;50.942;3.644;2023-02-04T08:05:51;23.83;;;13.43;;
52948;SDS011;38812;50.942;3.644;2023-02-04T08:08:17;24.70;;;10.93;;
52948;SDS011;38812;50.942;3.644;2023-02-04T08:10:42;25.25;;;11.20;;
52948;SDS011;38812;50.942;3.644;2023-02-04T08:13:07;22.55;;;10.90;;
52948;SDS011;38812;50.942;3.644;2023-02-04T08:15:33;25.13;;;10.60;;
52948;SDS011;38812;50.942;3.644;2023-02-04T08:17:58;22.73;;;11.85;;
52948;SDS011;38812;50.942;3.644;2023-02-04T08:20:23;25.00;;;10.85;;
52948;SDS011;38812;50.942;3.644;2023-02-04T08:22:49;13.48;;;9.43;;
52948;SDS011;38812;50.942;3.644;2023-02-04T08:25:14;23.75;;;11.02;;
52948;SDS011;38812;50.942;3.644;2023-02-04T08:27:40;21.42;;;9.80;;
52948;SDS011;38812;50.942;3.644;2023-02-04T08:30:06;24.73;;;9.88;;
52948;SDS011;38812;50.942;3.644;2023-02-04T08:32:32;22.10;;;10.40;;
52948;SDS011;38812;50.942;3.644;2023-02-04T08:34:58;66.07;;;29.95;;
52948;SDS011;38812;50.942;3.644;2023-02-04T08:37:23;85.10;;;39.95;;
52948;SDS011;38812;50.942;3.644;2023-02-04T08:39:49;107.72;;;48.38;;
52948;SDS011;38812;50.942;3.644;2023-02-04T08:42:15;69.85;;;31.77;;
52948;SDS011;38812;50.942;3.644;2023-02-04T08:44:40;83.50;;;37.10;;
52948;SDS011;38812;50.942;3.644;2023-02-04T08:47:06;97.03;;;44.33;;
52948;SDS011;38812;50.942;3.644;2023-02-04T08:49:32;36.55;;;20.15;;
52948;SDS011;38812;50.942;3.644;2023-02-04T08:51:57;27.52;;;13.73;;
52948;SDS011;38812;50.942;3.644;2023-02-04T08:54:23;26.95;;;13.55;;
52948;SDS011;38812;50.942;3.644;2023-02-04T08:56:50;21.73;;;10.27;;
52948;SDS011;38812;50.942;3.644;2023-02-04T08:59:15;20.05;;;9.00;;
52948;SDS011;38812;50.942;3.644;2023-02-04T09:01:41;20.67;;;8.13;;
52948;SDS011;38812;50.942;3.644;2023-02-04T09:04:06;22.45;;;7.40;;
52948;SDS011;38812;50.942;3.644;2023-02-04T09:06:31;23.02;;;8.38;;
52948;SDS011;38812;50.942;3.644;2023-02-04T09:08:57;18.05;;;6.85;;
52948;SDS011;38812;50.942;3.644;2023-02-04T09:11:22;18.88;;;7.03;;
52948;SDS011;38812;50.942;3.644;2023-02-04T09:13:48;17.40;;;7.07;;
52948;SDS011;38812;50.942;3.644;2023-02-04T09:16:13;18.70;;;7.00;;
52948;SDS011;38812;50.942;3.644;2023-02-04T09:18:38;18.05;;;8.57;;
52948;SDS011;38812;50.942;3.644;2023-02-04T09:21:04;15.88;;;7.07;;
52948;SDS011;38812;50.942;3.644;2023-02-04T09:23:30;17.70;;;6.03;;
52948;SDS011;38812;50.942;3.644;2023-02-04T09:25:55;18.63;;;5.85;;
52948;SDS011;38812;50.942;3.644;2023-02-04T09:28:21;11.35;;;6.47;;
52948;SDS011;38812;50.942;3.644;2023-02-04T09:30:46;17.55;;;6.75;;
52948;SDS011;38812;50.942;3.644;2023-02-04T09:33:12;16.30;;;5.60;;
52948;SDS011;38812;50.942;3.644;2023-02-04T09:35:39;15.52;;;6.13;;
52948;SDS011;38812;50.942;3.644;2023-02-04T09:38:04;11.48;;;4.68;;
52948;SDS011;38812;50.942;3.644;2023-02-04T09:40:31;13.50;;;4.60;;
52948;SDS011;38812;50.942;3.644;2023-02-04T09:43:03;20.95;;;5.53;;
52948;SDS011;38812;50.942;3.644;2023-02-04T09:45:31;9.80;;;5.13;;
52948;SDS011;38812;50.942;3.644;2023-02-04T09:47:58;16.92;;;4.90;;
52948;SDS011;38812;50.942;3.644;2023-02-04T09:50:26;16.83;;;4.95;;
52948;SDS011;38812;50.942;3.644;2023-02-04T09:52:53;18.65;;;4.85;;
52948;SDS011;38812;50.942;3.644;2023-02-04T09:55:24;17.75;;;4.90;;
52948;SDS011;38812;50.942;3.644;2023-02-04T09:57:53;12.55;;;4.60;;
52948;SDS011;38812;50.942;3.644;2023-02-04T10:00:19;10.48;;;3.90;;
52948;SDS011;38812;50.942;3.644;2023-02-04T10:02:47;17.48;;;5.95;;
52948;SDS011;38812;50.942;3.644;2023-02-04T10:05:14;21.90;;;6.10;;
52948;SDS011;38812;50.942;3.644;2023-02-04T10:07:45;15.27;;;4.60;;
52948;SDS011;38812;50.942;3.644;2023-02-04T10:10:16;14.05;;;4.05;;
52948;SDS011;38812;50.942;3.644;2023-02-04T10:12:44;14.57;;;4.30;;
52948;SDS011;38812;50.942;3.644;2023-02-04T10:15:14;10.75;;;3.60;;
52948;SDS011;38812;50.942;3.644;2023-02-04T10:17:43;16.15;;;3.70;;
52948;SDS011;38812;50.942;3.644;2023-02-04T10:20:17;9.32;;;4.28;;
52948;SDS011;38812;50.942;3.644;2023-02-04T10:22:44;10.02;;;3.72;;
52948;SDS011;38812;50.942;3.644;2023-02-04T10:25:12;13.85;;;4.45;;
52948;SDS011;38812;50.942;3.644;2023-02-04T10:27:48;11.55;;;4.15;;
52948;SDS011;38812;50.942;3.644;2023-02-04T10:30:36;10.20;;;3.88;;
52948;SDS011;38812;50.942;3.644;2023-02-04T10:33:14;10.60;;;3.70;;
52948;SDS011;38812;50.942;3.644;2023-02-04T10:35:49;19.50;;;3.97;;
52948;SDS011;38812;50.942;3.644;2023-02-04T10:38:16;11.55;;;3.97;;
52948;SDS011;38812;50.942;3.644;2023-02-04T10:40:42;8.63;;;3.92;;
52948;SDS011;38812;50.942;3.644;2023-02-04T10:48:19;10.32;;;4.13;;
52948;SDS011;38812;50.942;3.644;2023-02-04T10:50:45;14.20;;;5.55;;
52948;SDS011;38812;50.942;3.644;2023-02-04T10:53:18;12.80;;;5.72;;
52948;SDS011;38812;50.942;3.644;2023-02-04T10:56:04;11.63;;;4.15;;
52948;SDS011;38812;50.942;3.644;2023-02-04T10:58:38;17.48;;;5.32;;
52948;SDS011;38812;50.942;3.644;2023-02-04T11:01:07;9.35;;;3.45;;
52948;SDS011;38812;50.942;3.644;2023-02-04T11:03:34;6.07;;;3.17;;
52948;SDS011;38812;50.942;3.644;2023-02-04T11:06:04;12.90;;;4.00;;
52948;SDS011;38812;50.942;3.644;2023-02-04T11:11:16;17.08;;;3.60;;
52948;SDS011;38812;50.942;3.644;2023-02-04T11:16:30;10.73;;;3.77;;
52948;SDS011;38812;50.942;3.644;2023-02-04T11:19:03;13.00;;;4.25;;
52948;SDS011;38812;50.942;3.644;2023-02-04T11:26:44;8.07;;;3.47;;
52948;SDS011;38812;50.942;3.644;2023-02-04T11:29:29;8.35;;;4.85;;
52948;SDS011;38812;50.942;3.644;2023-02-04T11:32:03;17.65;;;4.47;;
52948;SDS011;38812;50.942;3.644;2023-02-04T11:34:49;11.38;;;4.20;;
52948;SDS011;38812;50.942;3.644;2023-02-04T11:37:36;9.80;;;3.58;;
52948;SDS011;38812;50.942;3.644;2023-02-04T11:40:19;18.48;;;4.43;;
52948;SDS011;38812;50.942;3.644;2023-02-04T11:42:45;12.43;;;4.22;;
52948;SDS011;38812;50.942;3.644;2023-02-04T11:47:38;13.80;;;3.80;;
52948;SDS011;38812;50.942;3.644;2023-02-04T11:53:07;10.73;;;4.13;;
52948;SDS011;38812;50.942;3.644;2023-02-04T11:55:36;14.43;;;4.03;;
52948;SDS011;38812;50.942;3.644;2023-02-04T11:58:15;12.27;;;3.67;;
52948;SDS011;38812;50.942;3.644;2023-02-04T12:00:42;10.95;;;3.95;;
52948;SDS011;38812;50.942;3.644;2023-02-04T12:03:27;10.43;;;3.72;;
52948;SDS011;38812;50.942;3.644;2023-02-04T12:05:55;8.25;;;4.03;;
52948;SDS011;38812;50.942;3.644;2023-02-04T12:10:48;9.50;;;3.55;;
52948;SDS011;38812;50.942;3.644;2023-02-04T12:13:22;12.10;;;4.00;;
52948;SDS011;38812;50.942;3.644;2023-02-04T12:16:02;17.50;;;3.90;;
52948;SDS011;38812;50.942;3.644;2023-02-04T12:18:30;10.88;;;3.95;;
52948;SDS011;38812;50.942;3.644;2023-02-04T12:20:57;12.15;;;4.20;;
52948;SDS011;38812;50.942;3.644;2023-02-04T12:23:24;7.97;;;4.05;;
52948;SDS011;38812;50.942;3.644;2023-02-04T12:25:51;19.05;;;6.85;;
52948;SDS011;38812;50.942;3.644;2023-02-04T12:28:16;12.10;;;5.00;;
52948;SDS011;38812;50.942;3.644;2023-02-04T12:30:42;13.80;;;5.63;;
52948;SDS011;38812;50.942;3.644;2023-02-04T12:33:07;10.40;;;4.43;;
52948;SDS011;38812;50.942;3.644;2023-02-04T12:35:33;8.52;;;4.40;;
52948;SDS011;38812;50.942;3.644;2023-02-04T12:37:59;7.50;;;4.13;;
52948;SDS011;38812;50.942;3.644;2023-02-04T12:40:25;12.73;;;4.35;;
52948;SDS011;38812;50.942;3.644;2023-02-04T12:42:50;11.98;;;3.90;;
52948;SDS011;38812;50.942;3.644;2023-02-04T12:45:16;9.82;;;4.10;;
52948;SDS011;38812;50.942;3.644;2023-02-04T12:47:42;11.70;;;4.32;;
52948;SDS011;38812;50.942;3.644;2023-02-04T12:50:09;12.68;;;4.65;;
52948;SDS011;38812;50.942;3.644;2023-02-04T12:52:35;13.93;;;6.03;;
52948;SDS011;38812;50.942;3.644;2023-02-04T12:55:01;12.55;;;4.88;;
52948;SDS011;38812;50.942;3.644;2023-02-04T12:57:29;12.00;;;4.65;;
52948;SDS011;38812;50.942;3.644;2023-02-04T12:59:55;8.95;;;4.03;;
52948;SDS011;38812;50.942;3.644;2023-02-04T13:02:23;13.93;;;4.90;;
52948;SDS011;38812;50.942;3.644;2023-02-04T13:04:49;13.00;;;4.38;;
52948;SDS011;38812;50.942;3.644;2023-02-04T13:07:17;12.85;;;4.97;;
52948;SDS011;38812;50.942;3.644;2023-02-04T13:09:42;11.52;;;4.70;;
52948;SDS011;38812;50.942;3.644;2023-02-04T13:12:09;13.05;;;4.90;;
52948;SDS011;38812;50.942;3.644;2023-02-04T13:14:37;13.02;;;5.10;;
52948;SDS011;38812;50.942;3.644;2023-02-04T13:17:03;14.20;;;4.85;;
52948;SDS011;38812;50.942;3.644;2023-02-04T13:19:28;18.25;;;5.95;;
52948;SDS011;38812;50.942;3.644;2023-02-04T13:21:54;16.27;;;6.95;;
52948;SDS011;38812;50.942;3.644;2023-02-04T13:24:19;28.02;;;12.35;;
52948;SDS011;38812;50.942;3.644;2023-02-04T13:26:44;13.82;;;7.22;;
52948;SDS011;38812;50.942;3.644;2023-02-04T13:29:10;13.73;;;5.43;;
52948;SDS011;38812;50.942;3.644;2023-02-04T13:31:35;12.90;;;4.68;;
52948;SDS011;38812;50.942;3.644;2023-02-04T13:34:01;10.50;;;4.70;;
52948;SDS011;38812;50.942;3.644;2023-02-04T13:36:26;11.98;;;4.38;;
52948;SDS011;38812;50.942;3.644;2023-02-04T13:38:54;9.73;;;4.85;;
52948;SDS011;38812;50.942;3.644;2023-02-04T13:41:19;11.40;;;4.30;;
52948;SDS011;38812;50.942;3.644;2023-02-04T13:43:45;11.70;;;4.63;;
52948;SDS011;38812;50.942;3.644;2023-02-04T13:46:10;7.07;;;4.05;;
52948;SDS011;38812;50.942;3.644;2023-02-04T13:48:35;9.23;;;4.35;;
52948;SDS011;38812;50.942;3.644;2023-02-04T13:51:01;15.05;;;4.38;;
52948;SDS011;38812;50.942;3.644;2023-02-04T13:53:26;10.57;;;4.07;;
52948;SDS011;38812;50.942;3.644;2023-02-04T13:55:55;13.45;;;4.88;;
52948;SDS011;38812;50.942;3.644;2023-02-04T13:58:22;11.05;;;4.18;;
52948;SDS011;38812;50.942;3.644;2023-02-04T14:00:47;15.02;;;4.80;;
52948;SDS011;38812;50.942;3.644;2023-02-04T14:03:13;9.52;;;4.18;;
52948;SDS011;38812;50.942;3.644;2023-02-04T14:05:38;13.20;;;4.95;;
52948;SDS011;38812;50.942;3.644;2023-02-04T14:08:03;11.27;;;3.83;;
52948;SDS011;38812;50.942;3.644;2023-02-04T14:10:29;11.70;;;4.88;;
52948;SDS011;38812;50.942;3.644;2023-02-04T14:12:54;16.67;;;5.50;;
52948;SDS011;38812;50.942;3.644;2023-02-04T14:15:20;11.73;;;5.00;;
52948;SDS011;38812;50.942;3.644;2023-02-04T14:17:45;6.95;;;4.57;;
52948;SDS011;38812;50.942;3.644;2023-02-04T14:20:11;11.55;;;4.28;;
52948;SDS011;38812;50.942;3.644;2023-02-04T14:22:36;13.90;;;4.53;;
52948;SDS011;38812;50.942;3.644;2023-02-04T14:25:02;10.70;;;4.50;;
52948;SDS011;38812;50.942;3.644;2023-02-04T14:27:28;11.38;;;4.85;;
52948;SDS011;38812;50.942;3.644;2023-02-04T14:29:53;10.75;;;4.50;;
52948;SDS011;38812;50.942;3.644;2023-02-04T14:32:18;14.30;;;5.13;;
52948;SDS011;38812;50.942;3.644;2023-02-04T14:34:45;13.18;;;4.38;;
52948;SDS011;38812;50.942;3.644;2023-02-04T14:37:10;10.18;;;4.75;;
52948;SDS011;38812;50.942;3.644;2023-02-04T14:39:36;13.05;;;4.72;;
52948;SDS011;38812;50.942;3.644;2023-02-04T14:42:01;14.48;;;6.72;;
52948;SDS011;38812;50.942;3.644;2023-02-04T14:44:29;15.27;;;6.22;;
52948;SDS011;38812;50.942;3.644;2023-02-04T14:46:54;22.25;;;6.30;;
52948;SDS011;38812;50.942;3.644;2023-02-04T14:49:20;12.73;;;5.90;;
52948;SDS011;38812;50.942;3.644;2023-02-04T14:51:45;15.68;;;6.80;;
52948;SDS011;38812;50.942;3.644;2023-02-04T14:54:10;12.18;;;5.30;;